sensor_id;sensor_type;location;lat;lon;timestamp;temperature;humidity
74488;DHT22;63019;51.080;13.642;2023-04-25T00:00:14;8.90;99.90
74488;DHT22;63019;51.080;13.642;2023-04-25T00:01:16;8.90;99.90
74488;DHT22;63019;51.080;13.642;2023-04-25T00:02:18;8.90;99.90
74488;DHT22;63019;51.080;13.642;2023-04-25T00:03:21;8.90;99.90
74488;DHT22;63019;51.080;13.642;2023-04-25T00:04:23;9.00;99.90
74488;DHT22;63019;51.080;13.642;2023-04-25T00:05:26;9.00;99.90
74488;DHT22;63019;51.080;13.642;2023-04-25T00:06:29;9.00;99.90
74488;DHT22;63019;51.080;13.642;2023-04-25T00:07:31;9.00;99.90
74488;DHT22;63019;51.080;13.642;2023-04-25T00:08:33;9.00;99.90
74488;DHT22;63019;51.080;13.642;2023-04-25T00:09:35;9.00;99.90
74488;DHT22;63019;51.080;13.642;2023-04-25T00:10:37;9.00;99.90
74488;DHT22;63019;51.080;13.642;2023-04-25T00:11:40;9.00;99.90
74488;DHT22;63019;51.080;13.642;2023-04-25T00:12:42;9.10;99.90
74488;DHT22;63019;51.080;13.642;2023-04-25T00:13:44;9.10;99.90
74488;DHT22;63019;51.080;13.642;2023-04-25T00:14:48;9.10;99.90
74488;DHT22;63019;51.080;13.642;2023-04-25T00:15:51;9.10;99.90
74488;DHT22;63019;51.080;13.642;2023-04-25T00:16:54;9.20;99.90
74488;DHT22;63019;51.080;13.642;2023-04-25T00:17:56;9.20;99.90
74488;DHT22;63019;51.080;13.642;2023-04-25T00:18:58;9.20;99.90
74488;DHT22;63019;51.080;13.642;2023-04-25T00:20:01;9.20;99.90
74488;DHT22;63019;51.080;13.642;2023-04-25T00:21:06;9.20;99.90
74488;DHT22;63019;51.080;13.642;2023-04-25T00:22:08;9.20;99.90
74488;DHT22;63019;51.080;13.642;2023-04-25T00:23:10;9.20;99.90
74488;DHT22;63019;51.080;13.642;2023-04-25T00:24:12;9.20;99.90
74488;DHT22;63019;51.080;13.642;2023-04-25T00:25:14;9.20;99.90
74488;DHT22;63019;51.080;13.642;2023-04-25T00:26:15;9.20;99.90
74488;DHT22;63019;51.080;13.642;2023-04-25T00:27:17;9.20;99.90
74488;DHT22;63019;51.080;13.642;2023-04-25T00:28:19;9.20;99.90
74488;DHT22;63019;51.080;13.642;2023-04-25T00:29:21;9.20;99.90
74488;DHT22;63019;51.080;13.642;2023-04-25T00:30:23;9.30;99.90
74488;DHT22;63019;51.080;13.642;2023-04-25T00:31:24;9.20;99.90
74488;DHT22;63019;51.080;13.642;2023-04-25T00:32:26;9.20;99.90
74488;DHT22;63019;51.080;13.642;2023-04-25T00:33:28;9.20;99.90
74488;DHT22;63019;51.080;13.642;2023-04-25T00:34:30;9.20;99.90
74488;DHT22;63019;51.080;13.642;2023-04-25T00:35:32;9.10;99.90
74488;DHT22;63019;51.080;13.642;2023-04-25T00:36:34;9.10;99.90
74488;DHT22;63019;51.080;13.642;2023-04-25T00:37:35;9.20;99.90
74488;DHT22;63019;51.080;13.642;2023-04-25T00:38:37;9.10;99.90
74488;DHT22;63019;51.080;13.642;2023-04-25T00:39:39;9.10;99.90
74488;DHT22;63019;51.080;13.642;2023-04-25T00:40:41;9.10;99.90
74488;DHT22;63019;51.080;13.642;2023-04-25T00:41:45;9.10;99.90
74488;DHT22;63019;51.080;13.642;2023-04-25T00:42:47;9.10;99.90
74488;DHT22;63019;51.080;13.642;2023-04-25T00:43:49;9.10;99.90
74488;DHT22;63019;51.080;13.642;2023-04-25T00:44:53;9.00;99.90
74488;DHT22;63019;51.080;13.642;2023-04-25T00:45:55;9.00;99.90
74488;DHT22;63019;51.080;13.642;2023-04-25T00:47:00;9.10;99.90
74488;DHT22;63019;51.080;13.642;2023-04-25T00:48:04;9.10;99.90
74488;DHT22;63019;51.080;13.642;2023-04-25T00:49:06;9.00;99.90
74488;DHT22;63019;51.080;13.642;2023-04-25T00:50:09;9.00;99.90
74488;DHT22;63019;51.080;13.642;2023-04-25T00:51:15;9.00;99.90
74488;DHT22;63019;51.080;13.642;2023-04-25T00:52:17;9.00;99.90
74488;DHT22;63019;51.080;13.642;2023-04-25T00:53:20;9.00;99.90
74488;DHT22;63019;51.080;13.642;2023-04-25T00:54:22;8.90;99.90
74488;DHT22;63019;51.080;13.642;2023-04-25T00:55:24;8.90;99.90
74488;DHT22;63019;51.080;13.642;2023-04-25T00:56:26;8.80;99.90
74488;DHT22;63019;51.080;13.642;2023-04-25T00:57:28;8.80;99.90
74488;DHT22;63019;51.080;13.642;2023-04-25T00:58:30;8.80;99.90
74488;DHT22;63019;51.080;13.642;2023-04-25T00:59:32;8.80;99.90
74488;DHT22;63019;51.080;13.642;2023-04-25T01:00:33;8.80;99.90
74488;DHT22;63019;51.080;13.642;2023-04-25T01:01:35;8.70;99.90
74488;DHT22;63019;51.080;13.642;2023-04-25T01:02:37;8.70;99.90
74488;DHT22;63019;51.080;13.642;2023-04-25T01:03:40;8.70;99.90
74488;DHT22;63019;51.080;13.642;2023-04-25T01:04:43;8.70;99.90
74488;DHT22;63019;51.080;13.642;2023-04-25T01:05:44;8.70;99.90
74488;DHT22;63019;51.080;13.642;2023-04-25T01:06:46;8.60;99.90
74488;DHT22;63019;51.080;13.642;2023-04-25T01:07:48;8.50;99.90
74488;DHT22;63019;51.080;13.642;2023-04-25T01:08:51;8.50;99.90
74488;DHT22;63019;51.080;13.642;2023-04-25T01:09:53;8.50;99.90
74488;DHT22;63019;51.080;13.642;2023-04-25T01:10:55;8.40;99.90
74488;DHT22;63019;51.080;13.642;2023-04-25T01:11:57;8.40;99.90
74488;DHT22;63019;51.080;13.642;2023-04-25T01:12:59;8.30;99.90
74488;DHT22;63019;51.080;13.642;2023-04-25T01:14:01;8.30;99.90
74488;DHT22;63019;51.080;13.642;2023-04-25T01:15:04;8.30;99.90
74488;DHT22;63019;51.080;13.642;2023-04-25T01:16:06;8.30;99.90
74488;DHT22;63019;51.080;13.642;2023-04-25T01:17:09;8.20;99.90
74488;DHT22;63019;51.080;13.642;2023-04-25T01:18:10;8.20;99.90
74488;DHT22;63019;51.080;13.642;2023-04-25T01:19:16;8.20;99.90
74488;DHT22;63019;51.080;13.642;2023-04-25T01:20:21;8.20;99.90
74488;DHT22;63019;51.080;13.642;2023-04-25T01:21:24;8.20;99.90
74488;DHT22;63019;51.080;13.642;2023-04-25T01:22:28;8.10;99.90
74488;DHT22;63019;51.080;13.642;2023-04-25T01:23:31;8.10;99.90
74488;DHT22;63019;51.080;13.642;2023-04-25T01:24:34;8.10;99.90
74488;DHT22;63019;51.080;13.642;2023-04-25T01:25:37;8.10;99.90
74488;DHT22;63019;51.080;13.642;2023-04-25T01:26:40;8.10;99.90
74488;DHT22;63019;51.080;13.642;2023-04-25T01:27:46;8.10;99.90
74488;DHT22;63019;51.080;13.642;2023-04-25T01:28:48;8.10;99.90
74488;DHT22;63019;51.080;13.642;2023-04-25T01:29:51;8.10;99.90
74488;DHT22;63019;51.080;13.642;2023-04-25T01:30:53;8.10;99.90
74488;DHT22;63019;51.080;13.642;2023-04-25T01:31:55;8.10;99.90
74488;DHT22;63019;51.080;13.642;2023-04-25T01:33:00;8.10;99.90
74488;DHT22;63019;51.080;13.642;2023-04-25T01:34:02;8.10;99.90
74488;DHT22;63019;51.080;13.642;2023-04-25T01:35:06;8.00;99.90
74488;DHT22;63019;51.080;13.642;2023-04-25T01:36:11;8.00;99.90
74488;DHT22;63019;51.080;13.642;2023-04-25T01:37:14;7.90;99.90
74488;DHT22;63019;51.080;13.642;2023-04-25T01:38:16;7.90;99.90
74488;DHT22;63019;51.080;13.642;2023-04-25T01:39:18;7.90;99.90
74488;DHT22;63019;51.080;13.642;2023-04-25T01:40:21;7.90;99.90
74488;DHT22;63019;51.080;13.642;2023-04-25T01:41:23;7.90;99.90
74488;DHT22;63019;51.080;13.642;2023-04-25T01:42:26;7.80;99.90
74488;DHT22;63019;51.080;13.642;2023-04-25T01:43:28;7.80;99.90
74488;DHT22;63019;51.080;13.642;2023-04-25T01:44:29;7.80;99.90
74488;DHT22;63019;51.080;13.642;2023-04-25T01:45:31;7.80;99.90
74488;DHT22;63019;51.080;13.642;2023-04-25T01:46:34;7.70;99.90
74488;DHT22;63019;51.080;13.642;2023-04-25T01:47:37;7.70;99.90
74488;DHT22;63019;51.080;13.642;2023-04-25T01:48:39;7.70;99.90
74488;DHT22;63019;51.080;13.642;2023-04-25T01:49:41;7.70;99.90
74488;DHT22;63019;51.080;13.642;2023-04-25T01:50:43;7.70;99.90
74488;DHT22;63019;51.080;13.642;2023-04-25T01:51:45;7.70;99.90
74488;DHT22;63019;51.080;13.642;2023-04-25T01:52:47;7.70;99.90
74488;DHT22;63019;51.080;13.642;2023-04-25T01:53:49;7.60;99.90
74488;DHT22;63019;51.080;13.642;2023-04-25T01:54:52;7.60;99.90
74488;DHT22;63019;51.080;13.642;2023-04-25T01:55:55;7.60;99.90
74488;DHT22;63019;51.080;13.642;2023-04-25T01:56:57;7.60;99.90
74488;DHT22;63019;51.080;13.642;2023-04-25T01:57:59;7.60;99.90
74488;DHT22;63019;51.080;13.642;2023-04-25T01:59:02;7.60;99.90
74488;DHT22;63019;51.080;13.642;2023-04-25T02:00:05;7.50;99.90
74488;DHT22;63019;51.080;13.642;2023-04-25T02:01:08;7.50;99.90
74488;DHT22;63019;51.080;13.642;2023-04-25T02:02:10;7.50;99.90
74488;DHT22;63019;51.080;13.642;2023-04-25T02:03:12;7.50;99.90
74488;DHT22;63019;51.080;13.642;2023-04-25T02:04:14;7.50;99.90
74488;DHT22;63019;51.080;13.642;2023-04-25T02:05:17;7.40;99.90
74488;DHT22;63019;51.080;13.642;2023-04-25T02:06:18;7.40;99.90
74488;DHT22;63019;51.080;13.642;2023-04-25T02:07:20;7.40;99.90
74488;DHT22;63019;51.080;13.642;2023-04-25T02:08:22;7.40;99.90
74488;DHT22;63019;51.080;13.642;2023-04-25T02:09:24;7.40;99.90
74488;DHT22;63019;51.080;13.642;2023-04-25T02:10:26;7.40;99.90
74488;DHT22;63019;51.080;13.642;2023-04-25T02:11:28;7.40;99.90
74488;DHT22;63019;51.080;13.642;2023-04-25T02:12:31;7.40;99.90
74488;DHT22;63019;51.080;13.642;2023-04-25T02:13:32;7.40;99.90
74488;DHT22;63019;51.080;13.642;2023-04-25T02:14:34;7.40;99.90
74488;DHT22;63019;51.080;13.642;2023-04-25T02:15:36;7.40;99.90
74488;DHT22;63019;51.080;13.642;2023-04-25T02:16:38;7.40;99.90
74488;DHT22;63019;51.080;13.642;2023-04-25T02:17:40;7.40;99.90
74488;DHT22;63019;51.080;13.642;2023-04-25T02:18:42;7.50;99.90
74488;DHT22;63019;51.080;13.642;2023-04-25T02:19:44;7.50;99.90
74488;DHT22;63019;51.080;13.642;2023-04-25T02:20:46;7.50;99.90
74488;DHT22;63019;51.080;13.642;2023-04-25T02:21:48;7.50;99.90
74488;DHT22;63019;51.080;13.642;2023-04-25T02:22:50;7.50;99.90
74488;DHT22;63019;51.080;13.642;2023-04-25T02:23:52;7.50;99.90
74488;DHT22;63019;51.080;13.642;2023-04-25T02:24:54;7.50;99.90
74488;DHT22;63019;51.080;13.642;2023-04-25T02:25:56;7.40;99.90
74488;DHT22;63019;51.080;13.642;2023-04-25T02:26:58;7.40;99.90
74488;DHT22;63019;51.080;13.642;2023-04-25T02:28:00;7.40;99.90
74488;DHT22;63019;51.080;13.642;2023-04-25T02:29:02;7.40;99.90
74488;DHT22;63019;51.080;13.642;2023-04-25T02:30:05;7.40;99.90
74488;DHT22;63019;51.080;13.642;2023-04-25T02:31:08;7.40;99.90
74488;DHT22;63019;51.080;13.642;2023-04-25T02:32:10;7.40;99.90
74488;DHT22;63019;51.080;13.642;2023-04-25T02:33:11;7.40;99.90
74488;DHT22;63019;51.080;13.642;2023-04-25T02:34:13;7.40;99.90
74488;DHT22;63019;51.080;13.642;2023-04-25T02:35:15;7.40;99.90
74488;DHT22;63019;51.080;13.642;2023-04-25T02:36:17;7.40;99.90
74488;DHT22;63019;51.080;13.642;2023-04-25T02:37:19;7.30;99.90
74488;DHT22;63019;51.080;13.642;2023-04-25T02:38:20;7.30;99.90
74488;DHT22;63019;51.080;13.642;2023-04-25T02:39:22;7.30;99.90
74488;DHT22;63019;51.080;13.642;2023-04-25T02:40:26;7.30;99.90
74488;DHT22;63019;51.080;13.642;2023-04-25T02:41:28;7.30;99.90
74488;DHT22;63019;51.080;13.642;2023-04-25T02:42:30;7.30;99.90
74488;DHT22;63019;51.080;13.642;2023-04-25T02:43:32;7.20;99.90
74488;DHT22;63019;51.080;13.642;2023-04-25T02:44:34;7.20;99.90
74488;DHT22;63019;51.080;13.642;2023-04-25T02:45:36;7.20;99.90
74488;DHT22;63019;51.080;13.642;2023-04-25T02:46:39;7.20;99.90
74488;DHT22;63019;51.080;13.642;2023-04-25T02:47:41;7.10;99.90
74488;DHT22;63019;51.080;13.642;2023-04-25T02:48:42;7.10;99.90
74488;DHT22;63019;51.080;13.642;2023-04-25T02:49:45;7.10;99.90
74488;DHT22;63019;51.080;13.642;2023-04-25T02:50:47;7.10;99.90
74488;DHT22;63019;51.080;13.642;2023-04-25T02:51:48;7.10;99.90
74488;DHT22;63019;51.080;13.642;2023-04-25T02:52:50;7.10;99.90
74488;DHT22;63019;51.080;13.642;2023-04-25T02:53:52;7.10;99.90
74488;DHT22;63019;51.080;13.642;2023-04-25T02:54:54;7.00;99.90
74488;DHT22;63019;51.080;13.642;2023-04-25T02:55:56;7.00;99.90
74488;DHT22;63019;51.080;13.642;2023-04-25T02:56:59;7.00;99.90
74488;DHT22;63019;51.080;13.642;2023-04-25T02:58:02;7.00;99.90
74488;DHT22;63019;51.080;13.642;2023-04-25T02:59:04;7.00;99.90
74488;DHT22;63019;51.080;13.642;2023-04-25T03:00:06;7.00;99.90
74488;DHT22;63019;51.080;13.642;2023-04-25T03:01:08;7.00;99.90
74488;DHT22;63019;51.080;13.642;2023-04-25T03:02:10;7.00;99.90
74488;DHT22;63019;51.080;13.642;2023-04-25T03:03:12;7.00;99.90
74488;DHT22;63019;51.080;13.642;2023-04-25T03:04:14;7.00;99.90
74488;DHT22;63019;51.080;13.642;2023-04-25T03:05:17;7.00;99.90
74488;DHT22;63019;51.080;13.642;2023-04-25T03:06:19;7.00;99.90
74488;DHT22;63019;51.080;13.642;2023-04-25T03:07:20;7.00;99.90
74488;DHT22;63019;51.080;13.642;2023-04-25T03:08:22;7.00;99.90
74488;DHT22;63019;51.080;13.642;2023-04-25T03:09:25;7.00;99.90
74488;DHT22;63019;51.080;13.642;2023-04-25T03:10:27;7.00;99.90
74488;DHT22;63019;51.080;13.642;2023-04-25T03:11:29;7.00;99.90
74488;DHT22;63019;51.080;13.642;2023-04-25T03:12:30;7.00;99.90
74488;DHT22;63019;51.080;13.642;2023-04-25T03:13:32;7.00;99.90
74488;DHT22;63019;51.080;13.642;2023-04-25T03:14:34;7.00;99.90
74488;DHT22;63019;51.080;13.642;2023-04-25T03:15:36;7.00;99.90
74488;DHT22;63019;51.080;13.642;2023-04-25T03:16:38;7.00;99.90
74488;DHT22;63019;51.080;13.642;2023-04-25T03:17:40;7.00;99.90
74488;DHT22;63019;51.080;13.642;2023-04-25T03:18:42;7.00;99.90
74488;DHT22;63019;51.080;13.642;2023-04-25T03:19:44;7.00;99.90
74488;DHT22;63019;51.080;13.642;2023-04-25T03:20:46;6.90;99.90
74488;DHT22;63019;51.080;13.642;2023-04-25T03:21:48;6.90;99.90
74488;DHT22;63019;51.080;13.642;2023-04-25T03:22:50;7.00;99.90
74488;DHT22;63019;51.080;13.642;2023-04-25T03:23:52;6.90;99.90
74488;DHT22;63019;51.080;13.642;2023-04-25T03:24:54;6.90;99.90
74488;DHT22;63019;51.080;13.642;2023-04-25T03:25:56;6.90;99.90
74488;DHT22;63019;51.080;13.642;2023-04-25T03:26:57;6.90;99.90
74488;DHT22;63019;51.080;13.642;2023-04-25T03:27:59;6.90;99.90
74488;DHT22;63019;51.080;13.642;2023-04-25T03:29:01;6.90;99.90
74488;DHT22;63019;51.080;13.642;2023-04-25T03:30:03;6.90;99.90
74488;DHT22;63019;51.080;13.642;2023-04-25T03:31:05;6.90;99.90
74488;DHT22;63019;51.080;13.642;2023-04-25T03:32:07;6.90;99.90
74488;DHT22;63019;51.080;13.642;2023-04-25T03:33:09;6.90;99.90
74488;DHT22;63019;51.080;13.642;2023-04-25T03:34:11;6.80;99.90
74488;DHT22;63019;51.080;13.642;2023-04-25T03:35:13;6.90;99.90
74488;DHT22;63019;51.080;13.642;2023-04-25T03:36:14;6.90;99.90
74488;DHT22;63019;51.080;13.642;2023-04-25T03:37:16;6.80;99.90
74488;DHT22;63019;51.080;13.642;2023-04-25T03:38:18;6.80;99.90
74488;DHT22;63019;51.080;13.642;2023-04-25T03:39:20;6.90;99.90
74488;DHT22;63019;51.080;13.642;2023-04-25T03:40:22;6.90;99.90
74488;DHT22;63019;51.080;13.642;2023-04-25T03:41:24;6.90;99.90
74488;DHT22;63019;51.080;13.642;2023-04-25T03:42:26;6.90;99.90
74488;DHT22;63019;51.080;13.642;2023-04-25T03:43:28;6.90;99.90
74488;DHT22;63019;51.080;13.642;2023-04-25T03:44:30;6.90;99.90
74488;DHT22;63019;51.080;13.642;2023-04-25T03:45:32;6.90;99.90
74488;DHT22;63019;51.080;13.642;2023-04-25T03:46:34;6.90;99.90
74488;DHT22;63019;51.080;13.642;2023-04-25T03:47:36;6.80;99.90
74488;DHT22;63019;51.080;13.642;2023-04-25T03:48:37;6.80;99.90
74488;DHT22;63019;51.080;13.642;2023-04-25T03:49:39;6.90;99.90
74488;DHT22;63019;51.080;13.642;2023-04-25T03:50:41;6.90;99.90
74488;DHT22;63019;51.080;13.642;2023-04-25T03:51:43;6.90;99.90
74488;DHT22;63019;51.080;13.642;2023-04-25T03:52:45;6.90;99.90
74488;DHT22;63019;51.080;13.642;2023-04-25T03:53:47;6.90;99.90
74488;DHT22;63019;51.080;13.642;2023-04-25T03:54:50;6.90;99.90
74488;DHT22;63019;51.080;13.642;2023-04-25T03:55:52;6.90;99.90
74488;DHT22;63019;51.080;13.642;2023-04-25T03:56:53;6.90;99.90
74488;DHT22;63019;51.080;13.642;2023-04-25T03:57:55;6.90;99.90
74488;DHT22;63019;51.080;13.642;2023-04-25T03:58:59;6.90;99.90
74488;DHT22;63019;51.080;13.642;2023-04-25T04:00:01;6.90;99.90
74488;DHT22;63019;51.080;13.642;2023-04-25T04:01:03;6.80;99.90
74488;DHT22;63019;51.080;13.642;2023-04-25T04:02:09;6.80;99.90
74488;DHT22;63019;51.080;13.642;2023-04-25T04:03:10;6.90;99.90
74488;DHT22;63019;51.080;13.642;2023-04-25T04:04:12;6.80;99.90
74488;DHT22;63019;51.080;13.642;2023-04-25T04:05:15;6.80;99.90
74488;DHT22;63019;51.080;13.642;2023-04-25T04:06:17;6.80;99.90
74488;DHT22;63019;51.080;13.642;2023-04-25T04:07:19;6.80;99.90
74488;DHT22;63019;51.080;13.642;2023-04-25T04:08:21;6.80;99.90
74488;DHT22;63019;51.080;13.642;2023-04-25T04:09:22;6.80;99.90
74488;DHT22;63019;51.080;13.642;2023-04-25T04:10:24;6.90;99.90
74488;DHT22;63019;51.080;13.642;2023-04-25T04:11:27;6.80;99.90
74488;DHT22;63019;51.080;13.642;2023-04-25T04:12:29;6.90;99.90
74488;DHT22;63019;51.080;13.642;2023-04-25T04:13:31;6.90;99.90
74488;DHT22;63019;51.080;13.642;2023-04-25T04:14:34;6.80;99.90
74488;DHT22;63019;51.080;13.642;2023-04-25T04:15:36;6.80;99.90
74488;DHT22;63019;51.080;13.642;2023-04-25T04:16:37;6.80;99.90
74488;DHT22;63019;51.080;13.642;2023-04-25T04:17:39;6.80;99.90
74488;DHT22;63019;51.080;13.642;2023-04-25T04:18:42;6.80;99.90
74488;DHT22;63019;51.080;13.642;2023-04-25T04:19:44;6.80;99.90
74488;DHT22;63019;51.080;13.642;2023-04-25T04:20:46;6.80;99.90
74488;DHT22;63019;51.080;13.642;2023-04-25T04:21:48;6.80;99.90
74488;DHT22;63019;51.080;13.642;2023-04-25T04:22:50;6.80;99.90
74488;DHT22;63019;51.080;13.642;2023-04-25T04:23:52;6.80;99.90
74488;DHT22;63019;51.080;13.642;2023-04-25T04:24:53;6.80;99.90
74488;DHT22;63019;51.080;13.642;2023-04-25T04:25:55;6.80;99.90
74488;DHT22;63019;51.080;13.642;2023-04-25T04:26:57;6.80;99.90
74488;DHT22;63019;51.080;13.642;2023-04-25T04:28:00;6.80;99.90
74488;DHT22;63019;51.080;13.642;2023-04-25T04:29:02;6.80;99.90
74488;DHT22;63019;51.080;13.642;2023-04-25T04:30:05;6.70;99.90
74488;DHT22;63019;51.080;13.642;2023-04-25T04:31:07;6.70;99.90
74488;DHT22;63019;51.080;13.642;2023-04-25T04:32:09;6.80;99.90
74488;DHT22;63019;51.080;13.642;2023-04-25T04:33:11;6.80;99.90
74488;DHT22;63019;51.080;13.642;2023-04-25T04:34:13;6.80;99.90
74488;DHT22;63019;51.080;13.642;2023-04-25T04:35:15;6.80;99.90
74488;DHT22;63019;51.080;13.642;2023-04-25T04:36:17;6.80;99.90
74488;DHT22;63019;51.080;13.642;2023-04-25T04:37:21;6.80;99.90
74488;DHT22;63019;51.080;13.642;2023-04-25T04:38:23;6.80;99.90
74488;DHT22;63019;51.080;13.642;2023-04-25T04:39:25;6.80;99.90
74488;DHT22;63019;51.080;13.642;2023-04-25T04:40:27;6.80;99.90
74488;DHT22;63019;51.080;13.642;2023-04-25T04:41:29;6.80;99.90
74488;DHT22;63019;51.080;13.642;2023-04-25T04:42:31;6.80;99.90
74488;DHT22;63019;51.080;13.642;2023-04-25T04:43:33;6.80;99.90
74488;DHT22;63019;51.080;13.642;2023-04-25T04:44:35;6.80;99.90
74488;DHT22;63019;51.080;13.642;2023-04-25T04:45:37;6.80;99.90
74488;DHT22;63019;51.080;13.642;2023-04-25T04:46:42;6.80;99.90
74488;DHT22;63019;51.080;13.642;2023-04-25T04:47:44;6.80;99.90
74488;DHT22;63019;51.080;13.642;2023-04-25T04:48:46;6.90;99.90
74488;DHT22;63019;51.080;13.642;2023-04-25T04:49:48;6.90;99.90
74488;DHT22;63019;51.080;13.642;2023-04-25T04:50:49;6.90;99.90
74488;DHT22;63019;51.080;13.642;2023-04-25T04:51:51;6.90;99.90
74488;DHT22;63019;51.080;13.642;2023-04-25T04:52:53;7.00;99.90
74488;DHT22;63019;51.080;13.642;2023-04-25T04:53:56;7.00;99.90
74488;DHT22;63019;51.080;13.642;2023-04-25T04:55:00;7.00;99.90
74488;DHT22;63019;51.080;13.642;2023-04-25T04:56:01;7.00;99.90
74488;DHT22;63019;51.080;13.642;2023-04-25T04:57:03;7.00;99.90
74488;DHT22;63019;51.080;13.642;2023-04-25T04:58:05;7.00;99.90
74488;DHT22;63019;51.080;13.642;2023-04-25T04:59:07;7.10;99.90
74488;DHT22;63019;51.080;13.642;2023-04-25T05:00:10;7.10;99.90
74488;DHT22;63019;51.080;13.642;2023-04-25T05:01:12;7.10;99.90
74488;DHT22;63019;51.080;13.642;2023-04-25T05:02:15;7.10;99.90
74488;DHT22;63019;51.080;13.642;2023-04-25T05:03:16;7.20;99.90
74488;DHT22;63019;51.080;13.642;2023-04-25T05:04:18;7.20;99.90
74488;DHT22;63019;51.080;13.642;2023-04-25T05:05:20;7.20;99.90
74488;DHT22;63019;51.080;13.642;2023-04-25T05:06:22;7.30;99.90
74488;DHT22;63019;51.080;13.642;2023-04-25T05:07:24;7.30;99.90
74488;DHT22;63019;51.080;13.642;2023-04-25T05:08:26;7.30;99.90
74488;DHT22;63019;51.080;13.642;2023-04-25T05:09:28;7.30;99.90
74488;DHT22;63019;51.080;13.642;2023-04-25T05:10:30;7.30;99.90
74488;DHT22;63019;51.080;13.642;2023-04-25T05:11:31;7.40;99.90
74488;DHT22;63019;51.080;13.642;2023-04-25T05:12:33;7.40;99.90
74488;DHT22;63019;51.080;13.642;2023-04-25T05:13:37;7.40;99.90
74488;DHT22;63019;51.080;13.642;2023-04-25T05:14:39;7.40;99.90
74488;DHT22;63019;51.080;13.642;2023-04-25T05:15:41;7.40;99.90
74488;DHT22;63019;51.080;13.642;2023-04-25T05:16:43;7.40;99.90
74488;DHT22;63019;51.080;13.642;2023-04-25T05:17:45;7.40;99.90
74488;DHT22;63019;51.080;13.642;2023-04-25T05:18:47;7.40;99.90
74488;DHT22;63019;51.080;13.642;2023-04-25T05:19:49;7.50;99.90
74488;DHT22;63019;51.080;13.642;2023-04-25T05:20:51;7.50;99.90
74488;DHT22;63019;51.080;13.642;2023-04-25T05:21:53;7.50;99.90
74488;DHT22;63019;51.080;13.642;2023-04-25T05:22:55;7.50;99.90
74488;DHT22;63019;51.080;13.642;2023-04-25T05:23:57;7.50;99.90
74488;DHT22;63019;51.080;13.642;2023-04-25T05:24:58;7.50;99.90
74488;DHT22;63019;51.080;13.642;2023-04-25T05:26:00;7.60;99.90
74488;DHT22;63019;51.080;13.642;2023-04-25T05:27:02;7.60;99.90
74488;DHT22;63019;51.080;13.642;2023-04-25T05:28:04;7.60;99.90
74488;DHT22;63019;51.080;13.642;2023-04-25T05:29:07;7.60;99.90
74488;DHT22;63019;51.080;13.642;2023-04-25T05:30:09;7.70;99.90
74488;DHT22;63019;51.080;13.642;2023-04-25T05:31:11;7.70;99.90
74488;DHT22;63019;51.080;13.642;2023-04-25T05:32:12;7.80;99.90
74488;DHT22;63019;51.080;13.642;2023-04-25T05:33:14;7.80;99.90
74488;DHT22;63019;51.080;13.642;2023-04-25T05:34:16;7.70;99.90
74488;DHT22;63019;51.080;13.642;2023-04-25T05:35:18;7.70;99.90
74488;DHT22;63019;51.080;13.642;2023-04-25T05:36:20;7.70;99.90
74488;DHT22;63019;51.080;13.642;2023-04-25T05:37:22;7.80;99.90
74488;DHT22;63019;51.080;13.642;2023-04-25T05:38:24;7.80;99.90
74488;DHT22;63019;51.080;13.642;2023-04-25T05:39:26;7.90;99.90
74488;DHT22;63019;51.080;13.642;2023-04-25T05:40:28;7.90;99.90
74488;DHT22;63019;51.080;13.642;2023-04-25T05:41:30;8.00;99.90
74488;DHT22;63019;51.080;13.642;2023-04-25T05:42:32;8.00;99.90
74488;DHT22;63019;51.080;13.642;2023-04-25T05:43:34;8.00;99.90
74488;DHT22;63019;51.080;13.642;2023-04-25T05:44:35;8.00;99.90
74488;DHT22;63019;51.080;13.642;2023-04-25T05:45:37;8.10;99.90
74488;DHT22;63019;51.080;13.642;2023-04-25T05:46:39;8.10;99.90
74488;DHT22;63019;51.080;13.642;2023-04-25T05:47:41;8.10;99.90
74488;DHT22;63019;51.080;13.642;2023-04-25T05:48:43;8.20;99.90
74488;DHT22;63019;51.080;13.642;2023-04-25T05:49:45;8.20;99.90
74488;DHT22;63019;51.080;13.642;2023-04-25T05:50:47;8.20;99.90
74488;DHT22;63019;51.080;13.642;2023-04-25T05:51:48;8.20;99.90
74488;DHT22;63019;51.080;13.642;2023-04-25T05:52:50;8.20;99.90
74488;DHT22;63019;51.080;13.642;2023-04-25T05:53:52;8.20;99.90
74488;DHT22;63019;51.080;13.642;2023-04-25T05:54:54;8.20;99.90
74488;DHT22;63019;51.080;13.642;2023-04-25T05:55:56;8.20;99.90
74488;DHT22;63019;51.080;13.642;2023-04-25T05:56:58;8.20;99.90
74488;DHT22;63019;51.080;13.642;2023-04-25T05:58:00;8.20;99.90
74488;DHT22;63019;51.080;13.642;2023-04-25T05:59:02;8.20;99.90
74488;DHT22;63019;51.080;13.642;2023-04-25T06:00:05;8.20;99.90
74488;DHT22;63019;51.080;13.642;2023-04-25T06:01:10;8.30;99.90
74488;DHT22;63019;51.080;13.642;2023-04-25T06:02:12;8.30;99.90
74488;DHT22;63019;51.080;13.642;2023-04-25T06:03:14;8.30;99.90
74488;DHT22;63019;51.080;13.642;2023-04-25T06:04:21;8.30;99.90
74488;DHT22;63019;51.080;13.642;2023-04-25T06:05:23;8.40;99.90
74488;DHT22;63019;51.080;13.642;2023-04-25T06:06:25;8.40;99.90
74488;DHT22;63019;51.080;13.642;2023-04-25T06:07:28;8.40;99.90
74488;DHT22;63019;51.080;13.642;2023-04-25T06:08:31;8.40;99.90
74488;DHT22;63019;51.080;13.642;2023-04-25T06:09:33;8.40;99.90
74488;DHT22;63019;51.080;13.642;2023-04-25T06:10:36;8.40;99.90
74488;DHT22;63019;51.080;13.642;2023-04-25T06:11:38;8.50;99.90
74488;DHT22;63019;51.080;13.642;2023-04-25T06:12:40;8.60;99.90
74488;DHT22;63019;51.080;13.642;2023-04-25T06:13:42;8.50;99.90
74488;DHT22;63019;51.080;13.642;2023-04-25T06:14:43;8.60;99.90
74488;DHT22;63019;51.080;13.642;2023-04-25T06:15:45;8.60;99.90
74488;DHT22;63019;51.080;13.642;2023-04-25T06:16:47;8.70;99.90
74488;DHT22;63019;51.080;13.642;2023-04-25T06:17:49;8.70;99.90
74488;DHT22;63019;51.080;13.642;2023-04-25T06:18:51;8.70;99.90
74488;DHT22;63019;51.080;13.642;2023-04-25T06:19:52;8.80;99.90
74488;DHT22;63019;51.080;13.642;2023-04-25T06:20:54;8.80;99.90
74488;DHT22;63019;51.080;13.642;2023-04-25T06:21:56;8.90;99.90
74488;DHT22;63019;51.080;13.642;2023-04-25T06:22:58;8.90;99.90
74488;DHT22;63019;51.080;13.642;2023-04-25T06:23:59;9.00;99.90
74488;DHT22;63019;51.080;13.642;2023-04-25T06:25:01;9.00;99.90
74488;DHT22;63019;51.080;13.642;2023-04-25T06:26:05;9.00;99.90
74488;DHT22;63019;51.080;13.642;2023-04-25T06:27:07;9.00;99.90
74488;DHT22;63019;51.080;13.642;2023-04-25T06:28:09;9.00;99.90
74488;DHT22;63019;51.080;13.642;2023-04-25T06:29:10;9.00;99.90
74488;DHT22;63019;51.080;13.642;2023-04-25T06:30:12;9.10;99.90
74488;DHT22;63019;51.080;13.642;2023-04-25T06:31:14;9.10;99.90
74488;DHT22;63019;51.080;13.642;2023-04-25T06:32:16;9.10;99.90